Main page
METAR-TAF:

METAR-TAF

Airports :

Albert Whitted Airport

St. Petersburg, Florida, United States

latitude: 27-46-04N, longitude: 082-37-34W, elevation: 7 ft

Current weather observation

The report was made 34 minutes ago, at 11:53 UTC
Wind 18 mph from the Northeast
Temperature 79°F
Humidity 84%
Pressure 30.01 in. Hg
Visibility: 10 miles
Overcast at a height of 3000 ft

METAR: KSPG 211153Z 05016KT 10SM OVC030 26/23 A3001 RMK AO2 SLP161 T02610228 10272 20261 51009

Time: 08:27 (12:27 UTC)


TAF: missing

Weather observations and forecasts of more than 4000 airports (METAR and TAF reports).

The available stations are represented by yellow and red dots on the map.

Hover mouse over dot to see the name of the station.

Then click to see weather observations and forecasts.

To change the map : click on the green buttons with a black cross to zoom in, on the green button with a dash to zoom out, or on the green arrows for adjacent maps.


METAR-TAF: